sensor_id;sensor_type;location;lat;lon;timestamp;temperature;humidity
39099;DHT22;24844;52.380;7.018;2022-10-17T00:01:51;13.50;99.90
39099;DHT22;24844;52.380;7.018;2022-10-17T00:04:16;13.50;99.90
39099;DHT22;24844;52.380;7.018;2022-10-17T00:06:42;13.50;99.90
39099;DHT22;24844;52.380;7.018;2022-10-17T00:09:07;13.50;99.90
39099;DHT22;24844;52.380;7.018;2022-10-17T00:11:34;13.50;99.90
39099;DHT22;24844;52.380;7.018;2022-10-17T00:14:00;13.60;99.90
39099;DHT22;24844;52.380;7.018;2022-10-17T00:16:29;13.50;99.90
39099;DHT22;24844;52.380;7.018;2022-10-17T00:18:55;13.50;99.90
39099;DHT22;24844;52.380;7.018;2022-10-17T00:21:21;13.40;99.90
39099;DHT22;24844;52.380;7.018;2022-10-17T00:23:47;13.40;99.90
39099;DHT22;24844;52.380;7.018;2022-10-17T00:26:14;13.40;99.90
39099;DHT22;24844;52.380;7.018;2022-10-17T00:28:39;13.40;99.90
39099;DHT22;24844;52.380;7.018;2022-10-17T00:31:06;13.30;99.90
39099;DHT22;24844;52.380;7.018;2022-10-17T00:33:33;13.20;99.90
39099;DHT22;24844;52.380;7.018;2022-10-17T00:36:08;13.30;99.90
39099;DHT22;24844;52.380;7.018;2022-10-17T00:38:35;13.20;99.90
39099;DHT22;24844;52.380;7.018;2022-10-17T00:41:00;13.30;99.90
39099;DHT22;24844;52.380;7.018;2022-10-17T00:43:26;13.20;99.90
39099;DHT22;24844;52.380;7.018;2022-10-17T00:45:52;13.30;99.90
39099;DHT22;24844;52.380;7.018;2022-10-17T00:48:18;13.40;99.90
39099;DHT22;24844;52.380;7.018;2022-10-17T00:50:46;13.30;99.90
39099;DHT22;24844;52.380;7.018;2022-10-17T00:53:13;13.50;99.90
39099;DHT22;24844;52.380;7.018;2022-10-17T00:55:50;13.50;99.90
39099;DHT22;24844;52.380;7.018;2022-10-17T00:58:18;13.70;99.90
39099;DHT22;24844;52.380;7.018;2022-10-17T01:00:45;13.80;99.90
39099;DHT22;24844;52.380;7.018;2022-10-17T01:03:11;13.50;99.90
39099;DHT22;24844;52.380;7.018;2022-10-17T01:05:38;13.40;99.90
39099;DHT22;24844;52.380;7.018;2022-10-17T01:08:04;13.40;99.90
39099;DHT22;24844;52.380;7.018;2022-10-17T01:10:38;13.40;99.90
39099;DHT22;24844;52.380;7.018;2022-10-17T01:13:32;13.50;99.90
39099;DHT22;24844;52.380;7.018;2022-10-17T01:18:49;13.80;99.90
39099;DHT22;24844;52.380;7.018;2022-10-17T01:21:29;13.90;99.90
39099;DHT22;24844;52.380;7.018;2022-10-17T01:24:32;13.70;99.90
39099;DHT22;24844;52.380;7.018;2022-10-17T01:29:56;13.70;99.90
39099;DHT22;24844;52.380;7.018;2022-10-17T01:32:44;13.80;99.90
39099;DHT22;24844;52.380;7.018;2022-10-17T01:41:09;13.60;99.90
39099;DHT22;24844;52.380;7.018;2022-10-17T01:43:50;13.30;99.90
39099;DHT22;24844;52.380;7.018;2022-10-17T01:46:38;13.10;99.90
39099;DHT22;24844;52.380;7.018;2022-10-17T01:49:06;13.10;99.90
39099;DHT22;24844;52.380;7.018;2022-10-17T01:51:41;13.10;99.90
39099;DHT22;24844;52.380;7.018;2022-10-17T01:54:14;13.00;99.90
39099;DHT22;24844;52.380;7.018;2022-10-17T01:56:43;13.00;99.90
39099;DHT22;24844;52.380;7.018;2022-10-17T01:59:17;13.00;99.90
39099;DHT22;24844;52.380;7.018;2022-10-17T02:01:45;13.10;99.90
39099;DHT22;24844;52.380;7.018;2022-10-17T02:04:11;13.20;99.90
39099;DHT22;24844;52.380;7.018;2022-10-17T02:06:37;13.20;99.90
39099;DHT22;24844;52.380;7.018;2022-10-17T02:09:35;13.30;99.90
39099;DHT22;24844;52.380;7.018;2022-10-17T02:20:31;13.90;99.90
39099;DHT22;24844;52.380;7.018;2022-10-17T02:28:29;13.60;99.90
39099;DHT22;24844;52.380;7.018;2022-10-17T02:31:03;13.50;99.90
39099;DHT22;24844;52.380;7.018;2022-10-17T02:33:57;13.50;99.90
39099;DHT22;24844;52.380;7.018;2022-10-17T02:36:29;13.40;99.90
39099;DHT22;24844;52.380;7.018;2022-10-17T02:38:57;13.40;99.90
39099;DHT22;24844;52.380;7.018;2022-10-17T02:41:25;13.30;99.90
39099;DHT22;24844;52.380;7.018;2022-10-17T02:43:52;13.40;99.90
39099;DHT22;24844;52.380;7.018;2022-10-17T02:46:20;13.30;99.90
39099;DHT22;24844;52.380;7.018;2022-10-17T02:48:53;13.20;99.90
39099;DHT22;24844;52.380;7.018;2022-10-17T02:53:54;13.10;99.90
39099;DHT22;24844;52.380;7.018;2022-10-17T02:56:25;13.10;99.90
39099;DHT22;24844;52.380;7.018;2022-10-17T02:58:56;13.20;99.90
39099;DHT22;24844;52.380;7.018;2022-10-17T03:01:23;13.10;99.90
39099;DHT22;24844;52.380;7.018;2022-10-17T03:03:49;13.10;99.90
39099;DHT22;24844;52.380;7.018;2022-10-17T03:06:15;13.10;99.90
39099;DHT22;24844;52.380;7.018;2022-10-17T03:08:40;13.10;99.90
39099;DHT22;24844;52.380;7.018;2022-10-17T03:11:06;13.20;99.90
39099;DHT22;24844;52.380;7.018;2022-10-17T03:13:32;13.20;99.90
39099;DHT22;24844;52.380;7.018;2022-10-17T03:15:57;13.20;99.90
39099;DHT22;24844;52.380;7.018;2022-10-17T03:18:23;13.10;99.90
39099;DHT22;24844;52.380;7.018;2022-10-17T03:20:49;13.10;99.90
39099;DHT22;24844;52.380;7.018;2022-10-17T03:23:14;13.10;99.90
39099;DHT22;24844;52.380;7.018;2022-10-17T03:25:40;13.20;99.90
39099;DHT22;24844;52.380;7.018;2022-10-17T03:28:05;13.10;99.90
39099;DHT22;24844;52.380;7.018;2022-10-17T03:30:31;13.10;99.90
39099;DHT22;24844;52.380;7.018;2022-10-17T03:32:58;13.00;99.90
39099;DHT22;24844;52.380;7.018;2022-10-17T03:35:25;13.00;99.90
39099;DHT22;24844;52.380;7.018;2022-10-17T03:37:50;13.10;99.90
39099;DHT22;24844;52.380;7.018;2022-10-17T03:40:16;13.10;99.90
39099;DHT22;24844;52.380;7.018;2022-10-17T03:42:42;13.10;99.90
39099;DHT22;24844;52.380;7.018;2022-10-17T03:45:08;13.10;99.90
39099;DHT22;24844;52.380;7.018;2022-10-17T03:47:34;13.20;99.90
39099;DHT22;24844;52.380;7.018;2022-10-17T03:49:59;13.20;99.90
39099;DHT22;24844;52.380;7.018;2022-10-17T03:52:25;13.20;99.90
39099;DHT22;24844;52.380;7.018;2022-10-17T03:54:50;13.10;99.90
39099;DHT22;24844;52.380;7.018;2022-10-17T03:57:17;13.20;99.90
39099;DHT22;24844;52.380;7.018;2022-10-17T03:59:43;13.10;99.90
39099;DHT22;24844;52.380;7.018;2022-10-17T04:02:08;13.10;99.90
39099;DHT22;24844;52.380;7.018;2022-10-17T04:04:34;13.30;99.90
39099;DHT22;24844;52.380;7.018;2022-10-17T04:06:59;13.30;99.90
39099;DHT22;24844;52.380;7.018;2022-10-17T04:09:25;13.20;99.90
39099;DHT22;24844;52.380;7.018;2022-10-17T04:11:50;13.30;99.90
39099;DHT22;24844;52.380;7.018;2022-10-17T04:14:16;13.40;99.90
39099;DHT22;24844;52.380;7.018;2022-10-17T04:16:42;13.40;99.90
39099;DHT22;24844;52.380;7.018;2022-10-17T04:19:11;13.60;99.90
39099;DHT22;24844;52.380;7.018;2022-10-17T04:21:36;13.60;99.90
39099;DHT22;24844;52.380;7.018;2022-10-17T04:24:02;13.70;99.90
39099;DHT22;24844;52.380;7.018;2022-10-17T04:26:28;13.40;99.90
39099;DHT22;24844;52.380;7.018;2022-10-17T04:28:53;13.50;99.90
39099;DHT22;24844;52.380;7.018;2022-10-17T04:31:19;13.80;99.90
39099;DHT22;24844;52.380;7.018;2022-10-17T04:33:49;13.80;99.90
39099;DHT22;24844;52.380;7.018;2022-10-17T04:36:17;13.50;99.90
39099;DHT22;24844;52.380;7.018;2022-10-17T04:38:43;13.80;99.90
39099;DHT22;24844;52.380;7.018;2022-10-17T04:41:11;13.80;99.90
39099;DHT22;24844;52.380;7.018;2022-10-17T04:43:38;13.60;99.90
39099;DHT22;24844;52.380;7.018;2022-10-17T04:46:10;13.70;99.90
39099;DHT22;24844;52.380;7.018;2022-10-17T04:48:36;13.80;99.90
39099;DHT22;24844;52.380;7.018;2022-10-17T04:51:20;13.90;99.90
39099;DHT22;24844;52.380;7.018;2022-10-17T04:53:46;13.90;99.90
39099;DHT22;24844;52.380;7.018;2022-10-17T04:56:19;13.90;99.90
39099;DHT22;24844;52.380;7.018;2022-10-17T04:58:46;13.60;99.90
39099;DHT22;24844;52.380;7.018;2022-10-17T05:01:14;13.70;99.90
39099;DHT22;24844;52.380;7.018;2022-10-17T05:03:40;13.70;99.90
39099;DHT22;24844;52.380;7.018;2022-10-17T05:06:08;13.60;99.90
39099;DHT22;24844;52.380;7.018;2022-10-17T05:08:35;13.70;99.90
39099;DHT22;24844;52.380;7.018;2022-10-17T05:11:01;13.80;99.90
39099;DHT22;24844;52.380;7.018;2022-10-17T05:13:26;13.80;99.90
39099;DHT22;24844;52.380;7.018;2022-10-17T05:15:52;13.80;99.90
39099;DHT22;24844;52.380;7.018;2022-10-17T05:18:18;14.00;99.90
39099;DHT22;24844;52.380;7.018;2022-10-17T05:20:43;13.90;99.90
39099;DHT22;24844;52.380;7.018;2022-10-17T05:23:09;14.10;99.90
39099;DHT22;24844;52.380;7.018;2022-10-17T05:25:35;13.90;99.90
39099;DHT22;24844;52.380;7.018;2022-10-17T05:28:00;13.90;99.90
39099;DHT22;24844;52.380;7.018;2022-10-17T05:30:26;13.80;99.90
39099;DHT22;24844;52.380;7.018;2022-10-17T05:32:52;14.00;99.90
39099;DHT22;24844;52.380;7.018;2022-10-17T05:35:19;13.90;99.90
39099;DHT22;24844;52.380;7.018;2022-10-17T05:37:44;14.00;99.90
39099;DHT22;24844;52.380;7.018;2022-10-17T05:40:10;14.00;99.90
39099;DHT22;24844;52.380;7.018;2022-10-17T05:42:36;14.00;99.90
39099;DHT22;24844;52.380;7.018;2022-10-17T05:45:01;14.00;99.90
39099;DHT22;24844;52.380;7.018;2022-10-17T05:47:27;14.10;99.90
39099;DHT22;24844;52.380;7.018;2022-10-17T05:49:52;14.10;99.90
39099;DHT22;24844;52.380;7.018;2022-10-17T05:52:18;14.20;99.90
39099;DHT22;24844;52.380;7.018;2022-10-17T05:54:43;14.20;99.90
39099;DHT22;24844;52.380;7.018;2022-10-17T05:57:09;14.30;99.90
39099;DHT22;24844;52.380;7.018;2022-10-17T05:59:35;14.30;99.90
39099;DHT22;24844;52.380;7.018;2022-10-17T06:02:00;14.50;99.90
39099;DHT22;24844;52.380;7.018;2022-10-17T06:04:26;14.50;99.90
39099;DHT22;24844;52.380;7.018;2022-10-17T06:06:52;14.50;99.90
39099;DHT22;24844;52.380;7.018;2022-10-17T06:09:18;14.50;99.90
39099;DHT22;24844;52.380;7.018;2022-10-17T06:11:43;14.50;99.90
39099;DHT22;24844;52.380;7.018;2022-10-17T06:14:09;14.50;99.90
39099;DHT22;24844;52.380;7.018;2022-10-17T06:16:34;14.50;99.90
39099;DHT22;24844;52.380;7.018;2022-10-17T06:19:00;14.60;99.90
39099;DHT22;24844;52.380;7.018;2022-10-17T06:21:26;14.60;99.90
39099;DHT22;24844;52.380;7.018;2022-10-17T06:23:52;14.60;99.90
39099;DHT22;24844;52.380;7.018;2022-10-17T06:26:18;14.70;99.90
39099;DHT22;24844;52.380;7.018;2022-10-17T06:28:44;14.70;99.90
39099;DHT22;24844;52.380;7.018;2022-10-17T06:31:12;14.70;99.90
39099;DHT22;24844;52.380;7.018;2022-10-17T06:33:38;14.80;99.90
39099;DHT22;24844;52.380;7.018;2022-10-17T06:36:05;14.80;99.90
39099;DHT22;24844;52.380;7.018;2022-10-17T06:38:32;14.80;99.90
39099;DHT22;24844;52.380;7.018;2022-10-17T06:41:09;14.90;99.90
39099;DHT22;24844;52.380;7.018;2022-10-17T06:43:39;15.10;99.90
39099;DHT22;24844;52.380;7.018;2022-10-17T06:46:05;15.00;99.90
39099;DHT22;24844;52.380;7.018;2022-10-17T06:48:32;15.00;99.90
39099;DHT22;24844;52.380;7.018;2022-10-17T06:50:59;15.10;99.90
39099;DHT22;24844;52.380;7.018;2022-10-17T06:53:30;15.10;99.90
39099;DHT22;24844;52.380;7.018;2022-10-17T06:55:56;15.40;99.90
39099;DHT22;24844;52.380;7.018;2022-10-17T06:58:28;15.40;99.90
39099;DHT22;24844;52.380;7.018;2022-10-17T07:00:58;15.30;99.90
39099;DHT22;24844;52.380;7.018;2022-10-17T07:03:24;15.30;99.90
39099;DHT22;24844;52.380;7.018;2022-10-17T07:05:53;15.70;99.90
39099;DHT22;24844;52.380;7.018;2022-10-17T07:08:19;15.80;99.90
39099;DHT22;24844;52.380;7.018;2022-10-17T07:10:45;15.60;99.90
39099;DHT22;24844;52.380;7.018;2022-10-17T07:13:11;15.50;99.90
39099;DHT22;24844;52.380;7.018;2022-10-17T07:15:37;15.50;99.90
39099;DHT22;24844;52.380;7.018;2022-10-17T07:18:03;15.50;99.90
39099;DHT22;24844;52.380;7.018;2022-10-17T07:20:29;15.70;99.90
39099;DHT22;24844;52.380;7.018;2022-10-17T07:22:54;16.00;99.90
39099;DHT22;24844;52.380;7.018;2022-10-17T07:25:20;16.00;99.90
39099;DHT22;24844;52.380;7.018;2022-10-17T07:27:48;16.10;99.90
39099;DHT22;24844;52.380;7.018;2022-10-17T07:30:13;16.30;99.90
39099;DHT22;24844;52.380;7.018;2022-10-17T07:32:39;16.30;99.90
39099;DHT22;24844;52.380;7.018;2022-10-17T07:35:05;16.40;99.90
39099;DHT22;24844;52.380;7.018;2022-10-17T07:37:30;16.70;99.90
39099;DHT22;24844;52.380;7.018;2022-10-17T07:39:56;16.80;99.90
39099;DHT22;24844;52.380;7.018;2022-10-17T07:42:22;16.80;99.90
39099;DHT22;24844;52.380;7.018;2022-10-17T07:44:47;17.10;99.90
39099;DHT22;24844;52.380;7.018;2022-10-17T07:47:13;17.10;99.90
39099;DHT22;24844;52.380;7.018;2022-10-17T07:49:39;17.10;99.90
39099;DHT22;24844;52.380;7.018;2022-10-17T07:52:15;17.20;99.90
39099;DHT22;24844;52.380;7.018;2022-10-17T07:54:41;17.30;99.90
39099;DHT22;24844;52.380;7.018;2022-10-17T07:57:07;17.40;99.90
39099;DHT22;24844;52.380;7.018;2022-10-17T07:59:34;17.40;99.90
39099;DHT22;24844;52.380;7.018;2022-10-17T08:02:00;17.50;99.90
39099;DHT22;24844;52.380;7.018;2022-10-17T08:04:26;17.70;99.90
39099;DHT22;24844;52.380;7.018;2022-10-17T08:06:52;17.90;99.90
39099;DHT22;24844;52.380;7.018;2022-10-17T08:09:18;18.00;99.90
39099;DHT22;24844;52.380;7.018;2022-10-17T08:11:44;18.30;99.90
39099;DHT22;24844;52.380;7.018;2022-10-17T08:14:13;18.40;99.90
39099;DHT22;24844;52.380;7.018;2022-10-17T08:16:41;18.70;99.90
39099;DHT22;24844;52.380;7.018;2022-10-17T08:19:06;19.20;99.90
39099;DHT22;24844;52.380;7.018;2022-10-17T08:21:33;19.50;99.90
39099;DHT22;24844;52.380;7.018;2022-10-17T08:23:59;19.70;99.90
39099;DHT22;24844;52.380;7.018;2022-10-17T08:26:27;20.30;99.90
39099;DHT22;24844;52.380;7.018;2022-10-17T08:28:52;20.50;99.90
39099;DHT22;24844;52.380;7.018;2022-10-17T08:31:19;20.60;99.90
39099;DHT22;24844;52.380;7.018;2022-10-17T08:33:45;20.60;99.90
39099;DHT22;24844;52.380;7.018;2022-10-17T08:36:14;19.90;99.90
39099;DHT22;24844;52.380;7.018;2022-10-17T08:38:40;19.50;99.90
39099;DHT22;24844;52.380;7.018;2022-10-17T08:41:43;19.20;99.90
39099;DHT22;24844;52.380;7.018;2022-10-17T08:46:55;19.40;99.90
39099;DHT22;24844;52.380;7.018;2022-10-17T08:49:36;19.60;99.90
39099;DHT22;24844;52.380;7.018;2022-10-17T08:52:09;19.50;99.90
39099;DHT22;24844;52.380;7.018;2022-10-17T08:54:42;19.40;99.90
39099;DHT22;24844;52.380;7.018;2022-10-17T08:57:12;19.30;99.90
39099;DHT22;24844;52.380;7.018;2022-10-17T08:59:38;19.00;99.90
39099;DHT22;24844;52.380;7.018;2022-10-17T09:10:57;19.10;99.90
39099;DHT22;24844;52.380;7.018;2022-10-17T09:19:22;19.70;99.90
39099;DHT22;24844;52.380;7.018;2022-10-17T09:21:55;19.90;99.90
39099;DHT22;24844;52.380;7.018;2022-10-17T09:26:59;20.30;99.90
39099;DHT22;24844;52.380;7.018;2022-10-17T09:29:26;20.30;99.90
39099;DHT22;24844;52.380;7.018;2022-10-17T09:32:02;20.20;99.90
39099;DHT22;24844;52.380;7.018;2022-10-17T09:34:31;20.00;99.90
39099;DHT22;24844;52.380;7.018;2022-10-17T09:36:58;20.00;99.90
39099;DHT22;24844;52.380;7.018;2022-10-17T09:39:26;20.00;99.90
39099;DHT22;24844;52.380;7.018;2022-10-17T09:41:58;19.90;99.90
39099;DHT22;24844;52.380;7.018;2022-10-17T09:44:34;19.80;99.90
39099;DHT22;24844;52.380;7.018;2022-10-17T09:47:13;19.60;99.90
39099;DHT22;24844;52.380;7.018;2022-10-17T09:49:42;19.40;99.90
39099;DHT22;24844;52.380;7.018;2022-10-17T09:52:29;19.20;99.90
39099;DHT22;24844;52.380;7.018;2022-10-17T09:58:04;18.90;99.90
39099;DHT22;24844;52.380;7.018;2022-10-17T10:00:39;18.70;99.90
39099;DHT22;24844;52.380;7.018;2022-10-17T10:03:21;18.50;99.90
39099;DHT22;24844;52.380;7.018;2022-10-17T10:06:14;18.10;99.90
39099;DHT22;24844;52.380;7.018;2022-10-17T10:08:51;18.40;99.90
39099;DHT22;24844;52.380;7.018;2022-10-17T10:11:21;18.50;99.90
39099;DHT22;24844;52.380;7.018;2022-10-17T10:13:48;18.50;99.90
39099;DHT22;24844;52.380;7.018;2022-10-17T10:16:29;18.40;99.90
39099;DHT22;24844;52.380;7.018;2022-10-17T10:18:54;18.50;99.90
39099;DHT22;24844;52.380;7.018;2022-10-17T10:21:25;18.40;99.90
39099;DHT22;24844;52.380;7.018;2022-10-17T10:24:11;18.50;99.90
39099;DHT22;24844;52.380;7.018;2022-10-17T10:26:38;18.50;99.90
39099;DHT22;24844;52.380;7.018;2022-10-17T10:29:35;18.30;99.90
39099;DHT22;24844;52.380;7.018;2022-10-17T10:32:29;18.40;99.90
39099;DHT22;24844;52.380;7.018;2022-10-17T10:37:55;18.60;99.90
39099;DHT22;24844;52.380;7.018;2022-10-17T10:40:32;18.50;99.90
39099;DHT22;24844;52.380;7.018;2022-10-17T10:43:00;18.50;99.90
39099;DHT22;24844;52.380;7.018;2022-10-17T10:45:40;18.30;99.90
39099;DHT22;24844;52.380;7.018;2022-10-17T10:48:25;18.70;99.90
39099;DHT22;24844;52.380;7.018;2022-10-17T10:53:36;18.30;99.90
39099;DHT22;24844;52.380;7.018;2022-10-17T10:56:28;18.10;99.90
39099;DHT22;24844;52.380;7.018;2022-10-17T10:59:14;18.10;99.90
39099;DHT22;24844;52.380;7.018;2022-10-17T11:04:50;17.60;99.90
39099;DHT22;24844;52.380;7.018;2022-10-17T11:12:32;16.90;99.90
39099;DHT22;24844;52.380;7.018;2022-10-17T11:15:22;17.50;99.90
39099;DHT22;24844;52.380;7.018;2022-10-17T11:17:59;17.40;99.90
39099;DHT22;24844;52.380;7.018;2022-10-17T11:23:37;17.40;99.90
39099;DHT22;24844;52.380;7.018;2022-10-17T11:26:12;17.20;99.90
39099;DHT22;24844;52.380;7.018;2022-10-17T11:28:40;17.20;99.90
39099;DHT22;24844;52.380;7.018;2022-10-17T11:31:09;17.10;99.90
39099;DHT22;24844;52.380;7.018;2022-10-17T11:33:50;17.10;99.90
39099;DHT22;24844;52.380;7.018;2022-10-17T11:36:19;17.30;99.90
39099;DHT22;24844;52.380;7.018;2022-10-17T11:39:02;17.20;99.90
39099;DHT22;24844;52.380;7.018;2022-10-17T11:41:47;16.80;99.90
39099;DHT22;24844;52.380;7.018;2022-10-17T11:49:36;17.00;99.90
39099;DHT22;24844;52.380;7.018;2022-10-17T11:52:31;17.30;99.90
39099;DHT22;24844;52.380;7.018;2022-10-17T11:55:02;17.10;99.90
39099;DHT22;24844;52.380;7.018;2022-10-17T11:57:42;17.10;99.90
39099;DHT22;24844;52.380;7.018;2022-10-17T12:03:28;17.10;99.90
39099;DHT22;24844;52.380;7.018;2022-10-17T12:06:01;17.10;99.90
39099;DHT22;24844;52.380;7.018;2022-10-17T12:08:43;17.20;99.90
39099;DHT22;24844;52.380;7.018;2022-10-17T12:13:54;17.20;99.90
39099;DHT22;24844;52.380;7.018;2022-10-17T12:21:27;17.70;99.90
39099;DHT22;24844;52.380;7.018;2022-10-17T12:23:53;18.00;99.90
39099;DHT22;24844;52.380;7.018;2022-10-17T12:26:27;18.10;99.90
39099;DHT22;24844;52.380;7.018;2022-10-17T12:28:54;18.30;99.90
39099;DHT22;24844;52.380;7.018;2022-10-17T12:31:22;18.40;99.90
39099;DHT22;24844;52.380;7.018;2022-10-17T12:33:51;18.40;99.90
39099;DHT22;24844;52.380;7.018;2022-10-17T12:46:56;18.50;99.90
39099;DHT22;24844;52.380;7.018;2022-10-17T12:59:56;18.10;99.90
39099;DHT22;24844;52.380;7.018;2022-10-17T13:02:24;18.10;99.90
39099;DHT22;24844;52.380;7.018;2022-10-17T13:05:02;18.10;99.90
39099;DHT22;24844;52.380;7.018;2022-10-17T13:07:32;18.10;99.90
39099;DHT22;24844;52.380;7.018;2022-10-17T13:09:58;18.20;99.90
39099;DHT22;24844;52.380;7.018;2022-10-17T13:12:30;18.20;99.90
39099;DHT22;24844;52.380;7.018;2022-10-17T13:14:57;18.10;99.90
39099;DHT22;24844;52.380;7.018;2022-10-17T13:17:28;18.30;99.90
39099;DHT22;24844;52.380;7.018;2022-10-17T13:19:55;18.20;99.90
39099;DHT22;24844;52.380;7.018;2022-10-17T13:22:23;18.10;99.90
39099;DHT22;24844;52.380;7.018;2022-10-17T13:24:50;18.20;99.90
39099;DHT22;24844;52.380;7.018;2022-10-17T13:27:31;18.00;99.90
39099;DHT22;24844;52.380;7.018;2022-10-17T13:29:58;18.20;99.90
39099;DHT22;24844;52.380;7.018;2022-10-17T13:32:33;18.10;99.90
39099;DHT22;24844;52.380;7.018;2022-10-17T13:35:11;18.10;99.90
39099;DHT22;24844;52.380;7.018;2022-10-17T13:37:39;18.10;99.90
39099;DHT22;24844;52.380;7.018;2022-10-17T13:40:16;17.90;99.90
39099;DHT22;24844;52.380;7.018;2022-10-17T13:42:41;17.90;99.90
39099;DHT22;24844;52.380;7.018;2022-10-17T13:45:27;17.60;99.90
39099;DHT22;24844;52.380;7.018;2022-10-17T13:47:54;17.60;99.90
39099;DHT22;24844;52.380;7.018;2022-10-17T13:50:47;17.80;99.90
39099;DHT22;24844;52.380;7.018;2022-10-17T13:56:03;17.80;99.90
39099;DHT22;24844;52.380;7.018;2022-10-17T13:58:44;17.80;99.90
39099;DHT22;24844;52.380;7.018;2022-10-17T14:01:11;17.90;99.90
39099;DHT22;24844;52.380;7.018;2022-10-17T14:03:40;17.70;99.90
39099;DHT22;24844;52.380;7.018;2022-10-17T14:06:16;17.60;99.90
39099;DHT22;24844;52.380;7.018;2022-10-17T14:11:29;17.70;99.90
39099;DHT22;24844;52.380;7.018;2022-10-17T14:13:57;18.00;99.90
39099;DHT22;24844;52.380;7.018;2022-10-17T14:16:24;18.20;99.90
39099;DHT22;24844;52.380;7.018;2022-10-17T14:18:51;18.10;99.90
39099;DHT22;24844;52.380;7.018;2022-10-17T14:21:24;18.20;99.90
39099;DHT22;24844;52.380;7.018;2022-10-17T14:23:51;18.10;99.90
39099;DHT22;24844;52.380;7.018;2022-10-17T14:26:21;17.80;99.90
39099;DHT22;24844;52.380;7.018;2022-10-17T14:29:03;17.70;99.90
39099;DHT22;24844;52.380;7.018;2022-10-17T14:31:34;18.10;99.90
39099;DHT22;24844;52.380;7.018;2022-10-17T14:34:02;17.60;99.90
39099;DHT22;24844;52.380;7.018;2022-10-17T14:36:31;18.00;99.90
39099;DHT22;24844;52.380;7.018;2022-10-17T14:38:57;18.20;99.90
39099;DHT22;24844;52.380;7.018;2022-10-17T14:41:25;17.70;99.90
39099;DHT22;24844;52.380;7.018;2022-10-17T14:44:01;18.20;99.90
39099;DHT22;24844;52.380;7.018;2022-10-17T14:46:27;17.90;99.90
39099;DHT22;24844;52.380;7.018;2022-10-17T14:49:19;18.30;99.90
39099;DHT22;24844;52.380;7.018;2022-10-17T14:54:40;17.80;99.90
39099;DHT22;24844;52.380;7.018;2022-10-17T14:57:20;17.80;99.90
39099;DHT22;24844;52.380;7.018;2022-10-17T14:59:46;17.90;99.90
39099;DHT22;24844;52.380;7.018;2022-10-17T15:02:12;18.00;99.90
39099;DHT22;24844;52.380;7.018;2022-10-17T15:04:38;17.80;99.90
39099;DHT22;24844;52.380;7.018;2022-10-17T15:07:03;18.00;99.90
39099;DHT22;24844;52.380;7.018;2022-10-17T15:09:29;17.90;99.90
39099;DHT22;24844;52.380;7.018;2022-10-17T15:11:59;18.10;99.90
39099;DHT22;24844;52.380;7.018;2022-10-17T15:14:26;18.20;99.90
39099;DHT22;24844;52.380;7.018;2022-10-17T15:16:52;17.60;99.90
39099;DHT22;24844;52.380;7.018;2022-10-17T15:19:17;17.70;99.90
39099;DHT22;24844;52.380;7.018;2022-10-17T15:21:43;18.00;99.90
39099;DHT22;24844;52.380;7.018;2022-10-17T15:24:08;17.60;99.90
39099;DHT22;24844;52.380;7.018;2022-10-17T15:26:34;17.60;99.90
39099;DHT22;24844;52.380;7.018;2022-10-17T15:29:00;18.00;99.90
39099;DHT22;24844;52.380;7.018;2022-10-17T15:31:27;18.00;99.90
39099;DHT22;24844;52.380;7.018;2022-10-17T15:33:53;18.00;99.90
39099;DHT22;24844;52.380;7.018;2022-10-17T15:36:26;17.80;99.90
39099;DHT22;24844;52.380;7.018;2022-10-17T15:38:57;17.90;99.90
39099;DHT22;24844;52.380;7.018;2022-10-17T15:41:28;18.00;99.90
39099;DHT22;24844;52.380;7.018;2022-10-17T15:43:54;17.90;99.90
39099;DHT22;24844;52.380;7.018;2022-10-17T15:46:23;17.60;99.90
39099;DHT22;24844;52.380;7.018;2022-10-17T15:48:50;17.50;99.90
39099;DHT22;24844;52.380;7.018;2022-10-17T15:51:16;17.80;99.90
39099;DHT22;24844;52.380;7.018;2022-10-17T15:53:42;17.60;99.90
39099;DHT22;24844;52.380;7.018;2022-10-17T15:56:21;17.70;99.90
39099;DHT22;24844;52.380;7.018;2022-10-17T15:58:48;17.70;99.90
39099;DHT22;24844;52.380;7.018;2022-10-17T16:01:25;17.60;99.90
39099;DHT22;24844;52.380;7.018;2022-10-17T16:03:51;17.50;99.90
39099;DHT22;24844;52.380;7.018;2022-10-17T16:06:18;17.50;99.90
39099;DHT22;24844;52.380;7.018;2022-10-17T16:08:45;17.80;99.90
39099;DHT22;24844;52.380;7.018;2022-10-17T16:11:38;17.90;99.90
39099;DHT22;24844;52.380;7.018;2022-10-17T16:14:09;17.40;99.90
39099;DHT22;24844;52.380;7.018;2022-10-17T16:16:35;17.40;99.90
39099;DHT22;24844;52.380;7.018;2022-10-17T16:19:01;17.20;99.90
39099;DHT22;24844;52.380;7.018;2022-10-17T16:21:28;17.70;99.90
39099;DHT22;24844;52.380;7.018;2022-10-17T16:23:55;17.60;99.90
39099;DHT22;24844;52.380;7.018;2022-10-17T16:26:21;17.30;99.90
39099;DHT22;24844;52.380;7.018;2022-10-17T16:28:46;17.30;99.90
39099;DHT22;24844;52.380;7.018;2022-10-17T16:31:21;17.20;99.90
39099;DHT22;24844;52.380;7.018;2022-10-17T16:33:48;17.70;99.90
39099;DHT22;24844;52.380;7.018;2022-10-17T16:36:14;17.70;99.90
39099;DHT22;24844;52.380;7.018;2022-10-17T16:38:40;17.40;99.90
39099;DHT22;24844;52.380;7.018;2022-10-17T16:43:47;17.20;99.90
39099;DHT22;24844;52.380;7.018;2022-10-17T16:46:13;17.40;99.90
39099;DHT22;24844;52.380;7.018;2022-10-17T16:48:38;17.50;99.90
39099;DHT22;24844;52.380;7.018;2022-10-17T16:51:04;16.90;99.90
39099;DHT22;24844;52.380;7.018;2022-10-17T16:53:29;16.70;99.90
39099;DHT22;24844;52.380;7.018;2022-10-17T16:56:01;16.80;99.90
39099;DHT22;24844;52.380;7.018;2022-10-17T16:58:27;16.90;99.90
39099;DHT22;24844;52.380;7.018;2022-10-17T17:00:58;16.90;99.90
39099;DHT22;24844;52.380;7.018;2022-10-17T17:03:24;16.40;99.90
39099;DHT22;24844;52.380;7.018;2022-10-17T17:05:50;16.50;99.90
39099;DHT22;24844;52.380;7.018;2022-10-17T17:08:16;16.60;99.90
39099;DHT22;24844;52.380;7.018;2022-10-17T17:10:46;16.80;99.90
39099;DHT22;24844;52.380;7.018;2022-10-17T17:13:13;16.70;99.90
39099;DHT22;24844;52.380;7.018;2022-10-17T17:15:39;16.60;99.90
39099;DHT22;24844;52.380;7.018;2022-10-17T17:18:04;16.40;99.90
39099;DHT22;24844;52.380;7.018;2022-10-17T17:20:31;16.40;99.90
39099;DHT22;24844;52.380;7.018;2022-10-17T17:22:57;16.20;99.90
39099;DHT22;24844;52.380;7.018;2022-10-17T17:25:23;16.50;99.90
39099;DHT22;24844;52.380;7.018;2022-10-17T17:27:48;16.40;99.90
39099;DHT22;24844;52.380;7.018;2022-10-17T17:30:14;16.40;99.90
39099;DHT22;24844;52.380;7.018;2022-10-17T17:32:40;16.30;99.90
39099;DHT22;24844;52.380;7.018;2022-10-17T17:35:05;16.70;99.90
39099;DHT22;24844;52.380;7.018;2022-10-17T17:37:31;16.20;99.90
39099;DHT22;24844;52.380;7.018;2022-10-17T17:39:57;16.60;99.90
39099;DHT22;24844;52.380;7.018;2022-10-17T17:42:22;16.30;99.90